Conroe, TX

02:21 PM CDT del 27 Agosto 2015 (GMT -0500)
Briar Grove | | Change Station
CLOSE
Current Station
Stazione meteo personale
Location: Conroe, TX
Altitudine: 226 ft
Stazioni meteo nelle vicinanze

Alt. 226 ft 30.34 °N, 95.44 °W | Updated 8 seconds ago

Sereno
Sereno
90.9 °F
Sembra 90 °F
N
0.0
Vento Variabile Vento da OSO
Gusts 0.0 mph

Oggi
Massima -- | Minima -- °F
--% Possibilità di precip.
Ieri
Massima -- | Minima -- °F
Precip. -- in
6:55 AM 7:50 PM
Gobba a ponente, 94% visible
Pressione 30.05 in
Visibilità 10.0 miglia
Nuvole Sereno
Indice di calore 90 °F
Punto di rugiada 59 °F
Umidità 34%
Piovosità 0.00 in
Spessore del manto nevoso Non disponibile.
Raggi UV 4.0 fuori da 12
Polline 5.50 fuori da 12
Qualità dell'aria Non disponibile.
Flu Activity Non disponibile.
METAR KCXO 271853Z 00000KT 10SM CLR 32/14 A3006 RMK AO2 SLP174 T03170144
Pressione 30.05 in
Visibilità 10.0 miglia
Nuvole Sereno
Indice di calore 90 °F
Punto di rugiada 59 °F
Umidità 34%
Piovosità 0.00 in
Spessore del manto nevoso Non disponibile.
Raggi UV 4.0 fuori da 12
Polline 5.50 fuori da 12
Qualità dell'aria Non disponibile.
Flu Activity Non disponibile.
METAR KCXO 271853Z 00000KT 10SM CLR 32/14 A3006 RMK AO2 SLP174 T03170144

10-Day Weather Forecast

×

Almanac

Astronomia

Aug. 27, 2015 Alba Tramonto
Ora attuale
Crepuscolo civile
Crepuscolo nautico
Crepuscolo astronomico
Luna
Estensione della luce visibile
Lunghezza del giorno
Tomorrow will be .
, % of the Moon is Illuminated

Gli estremi di oggi

State Highs State Lows

Community

WunderPhotos

Upload Photos

1,850,195 foto caricate!

WunderBlogs® & News

Nearby

Qualità dell'aria

  Qualità dell'aria Indice AQ Inquinante
Not available.

Profondità neve

Stazione Profondità Altitudine

Attività sismica

Città  Distanza Mag. Data & Ora
Minimo Magnitudo Mostrato è 2.5.

Temperature delle acque costiere

Località Temperatura

Stations

Stazioni meteo nelle vicinanze

Ubicazione della stazione Temp. Raffreddamento del vento Punto di rugiada Umidità Vento Precip. Alt. Aggiornato Tipo